createdAt,value
2023-03-12T00:04:09.644Z,38.93
2023-03-12T00:09:17.456Z,38.42
2023-03-12T00:14:24.342Z,38.53
2023-03-12T00:19:31.358Z,37.40
2023-03-12T00:29:44.614Z,37.08
2023-03-12T00:34:56.348Z,36.77
2023-03-12T00:40:06.111Z,37.33
2023-03-12T00:45:13.870Z,37.77
2023-03-12T00:50:21.122Z,37.40
2023-03-12T00:55:27.788Z,37.28
2023-03-12T01:00:34.590Z,37.00
2023-03-12T01:05:41.756Z,37.77
2023-03-12T01:10:48.853Z,37.43
2023-03-12T01:21:03.750Z,36.17
2023-03-12T01:31:22.356Z,37.08
2023-03-12T01:36:32.368Z,36.93
2023-03-12T01:41:40.230Z,37.77
2023-03-12T01:46:48.817Z,37.67
2023-03-12T01:52:02.775Z,37.83
2023-03-12T01:57:13.790Z,37.00
2023-03-12T02:02:23.109Z,37.30
2023-03-12T02:07:31.284Z,37.53
2023-03-12T02:12:38.537Z,36.97
2023-03-12T02:17:47.090Z,36.67
2023-03-12T02:23:06.326Z,36.50
2023-03-12T02:28:17.603Z,36.55
2023-03-12T02:33:24.856Z,36.93
2023-03-12T02:38:48.054Z,36.50
2023-03-12T02:43:59.939Z,37.07
2023-03-12T02:49:08.036Z,36.70
2023-03-12T02:54:17.117Z,36.33
2023-03-12T02:59:26.925Z,36.83
2023-03-12T03:04:35.629Z,36.97
2023-03-12T03:09:43.739Z,37.10
2023-03-12T03:14:51.964Z,37.20
2023-03-12T03:19:58.963Z,36.77
2023-03-12T03:25:07.132Z,36.73
2023-03-12T03:30:15.046Z,36.20
2023-03-12T03:35:23.362Z,36.60
2023-03-12T03:40:31.818Z,36.42
2023-03-12T03:45:39.297Z,36.53
2023-03-12T03:50:47.604Z,36.53
2023-03-12T03:55:54.428Z,37.00
2023-03-12T04:01:02.660Z,36.90
2023-03-12T04:06:09.883Z,37.13
2023-03-12T04:11:20.361Z,37.07
2023-03-12T04:16:28.073Z,37.07
2023-03-12T04:21:35.060Z,36.70
2023-03-12T04:26:41.900Z,36.47
2023-03-12T04:31:49.182Z,37.60
2023-03-12T04:36:57.663Z,37.08
2023-03-12T04:42:04.495Z,37.53
2023-03-12T04:47:13.165Z,36.77
2023-03-12T04:52:20.591Z,36.60
2023-03-12T04:57:27.859Z,37.67
2023-03-12T05:02:35.836Z,37.20
2023-03-12T05:07:46.095Z,37.40
2023-03-12T05:12:54.213Z,37.35
2023-03-12T05:18:01.610Z,37.23
2023-03-12T05:23:08.512Z,37.43
2023-03-12T05:33:23.759Z,37.43
2023-03-12T05:38:31.014Z,38.00
2023-03-12T05:43:38.688Z,38.93
2023-03-12T05:48:45.541Z,37.77
2023-03-12T05:53:52.388Z,38.87
2023-03-12T05:58:59.376Z,38.17
2023-03-12T06:09:14.115Z,38.90
2023-03-12T06:14:20.866Z,38.57
2023-03-12T06:19:28.167Z,39.30
2023-03-12T06:29:41.188Z,39.40
2023-03-12T06:34:49.465Z,39.43
2023-03-12T06:39:57.026Z,39.40
2023-03-12T06:45:05.597Z,40.27
2023-03-12T06:50:13.893Z,40.28
2023-03-12T06:55:21.327Z,40.13
2023-03-12T07:00:28.827Z,40.60
2023-03-12T07:05:36.336Z,40.63
2023-03-12T07:10:43.977Z,40.20
2023-03-12T07:15:52.466Z,41.25
2023-03-12T07:21:02.272Z,41.37
2023-03-12T07:26:09.910Z,41.93
2023-03-12T07:31:17.421Z,42.00
2023-03-12T07:36:25.533Z,42.07
2023-03-12T07:41:33.930Z,42.87
2023-03-12T07:46:42.570Z,42.60
2023-03-12T07:51:50.385Z,42.57
2023-03-12T07:56:58.004Z,42.83
2023-03-12T08:02:05.428Z,42.97
2023-03-12T08:07:13.990Z,43.00
2023-03-12T08:12:20.775Z,43.87
2023-03-12T08:17:28.798Z,43.23
2023-03-12T08:22:35.584Z,43.57
2023-03-12T08:27:44.007Z,44.27
2023-03-12T08:32:52.116Z,43.57
2023-03-12T08:38:01.920Z,43.70
2023-03-12T08:43:09.246Z,44.10
2023-03-12T08:48:16.478Z,44.07
2023-03-12T08:53:28.896Z,44.80
2023-03-12T08:58:36.767Z,44.63
2023-03-12T09:03:47.341Z,44.53
2023-03-12T09:08:54.167Z,43.97
2023-03-12T09:14:42.325Z,44.10
2023-03-12T09:19:10.217Z,44.23
2023-03-12T09:24:17.156Z,44.17
2023-03-12T09:29:24.952Z,45.13
2023-03-12T09:34:31.709Z,44.03
2023-03-12T09:39:38.521Z,44.75
2023-03-12T09:44:48.845Z,44.47
2023-03-12T09:50:09.713Z,44.07
2023-03-12T09:55:20.918Z,43.93
2023-03-12T10:00:33.594Z,44.43
2023-03-12T10:06:02.027Z,44.47
2023-03-12T10:11:25.314Z,44.97
2023-03-12T10:16:49.526Z,44.60
2023-03-12T10:22:09.904Z,44.43
2023-03-12T10:27:20.929Z,44.50
2023-03-12T10:32:43.475Z,44.80
2023-03-12T10:38:05.329Z,44.07
2023-03-12T10:43:12.034Z,45.40
2023-03-12T10:48:26.239Z,43.47
2023-03-12T10:53:36.907Z,44.38
2023-03-12T10:58:47.179Z,48.00
2023-03-12T11:03:57.557Z,44.67
2023-03-12T11:09:20.436Z,46.93
2023-03-12T11:14:31.532Z,46.15
2023-03-12T11:19:40.374Z,44.73
2023-03-12T11:25:05.064Z,43.70
2023-03-12T11:30:17.262Z,44.67
2023-03-12T11:35:32.145Z,44.75
2023-03-12T11:41:02.011Z,44.37
2023-03-12T11:46:25.020Z,44.93
2023-03-12T11:51:59.787Z,44.80
2023-03-12T11:57:31.666Z,44.67
2023-03-12T12:03:07.015Z,45.40
2023-03-12T12:08:37.547Z,45.48
2023-03-12T12:14:13.920Z,44.90
2023-03-12T12:19:52.108Z,43.63
2023-03-12T12:25:27.658Z,44.03
2023-03-12T12:30:47.749Z,44.23
2023-03-12T12:35:54.998Z,44.43
2023-03-12T12:41:26.815Z,44.27
2023-03-12T12:46:40.727Z,44.00
2023-03-12T12:51:58.820Z,44.17
2023-03-12T12:57:20.614Z,43.60
2023-03-12T13:02:31.013Z,43.67
2023-03-12T13:07:39.718Z,43.77
2023-03-12T13:12:52.989Z,44.17
2023-03-12T13:18:10.520Z,44.07
2023-03-12T13:23:34.627Z,43.76
2023-03-12T13:29:11.371Z,45.10
2023-03-12T13:34:28.047Z,43.70
2023-03-12T13:39:37.417Z,43.67
2023-03-12T13:44:48.112Z,43.33
2023-03-12T13:50:07.644Z,43.25
2023-03-12T13:55:26.923Z,43.23
2023-03-12T14:00:47.687Z,43.10
2023-03-12T14:06:16.546Z,42.93
2023-03-12T14:12:03.139Z,43.10
2023-03-12T14:22:33.972Z,43.07
2023-03-12T14:27:43.191Z,44.20
2023-03-12T14:32:56.767Z,48.03
2023-03-12T14:38:17.006Z,43.80
2023-03-12T14:43:34.702Z,43.80
2023-03-12T14:48:42.362Z,43.77
2023-03-12T14:53:50.983Z,43.40
2023-03-12T14:58:59.405Z,44.10
2023-03-12T15:04:12.093Z,43.73
2023-03-12T15:09:27.405Z,43.23
2023-03-12T15:14:45.973Z,43.13
2023-03-12T15:19:54.979Z,43.10
2023-03-12T15:25:28.485Z,43.70
2023-03-12T15:30:37.169Z,43.30
2023-03-12T15:36:19.962Z,42.83
2023-03-12T15:41:47.451Z,42.65
2023-03-12T15:47:01.410Z,42.23
2023-03-12T15:52:27.993Z,43.17
2023-03-12T15:57:38.739Z,42.27
2023-03-12T16:03:00.334Z,42.80
2023-03-12T16:08:36.465Z,43.00
2023-03-12T16:13:44.482Z,43.07
2023-03-12T16:18:51.410Z,43.05
2023-03-12T16:23:59.491Z,42.23
2023-03-12T16:29:07.195Z,43.37
2023-03-12T16:34:14.538Z,45.50
2023-03-12T16:39:21.910Z,42.87
2023-03-12T16:49:37.239Z,43.10
2023-03-12T16:54:43.946Z,42.00
2023-03-12T16:59:51.745Z,43.70
2023-03-12T17:04:59.135Z,42.65
2023-03-12T17:10:08.569Z,43.50
2023-03-12T17:15:20.826Z,44.13
2023-03-12T17:20:28.563Z,43.03
2023-03-12T17:25:39.030Z,44.30
2023-03-12T17:30:47.655Z,54.03
2023-03-12T17:36:10.426Z,54.87
2023-03-12T17:41:25.960Z,46.47
2023-03-12T17:46:26.705Z,48.27
2023-03-12T17:51:35.037Z,43.92
2023-03-12T17:56:43.187Z,48.00
2023-03-12T18:01:51.390Z,46.67
2023-03-12T18:07:00.848Z,44.33
2023-03-12T18:12:08.012Z,44.40
2023-03-12T18:17:16.122Z,43.63
2023-03-12T18:22:24.736Z,44.50
2023-03-12T18:27:32.244Z,46.93
2023-03-12T18:32:40.128Z,46.07
2023-03-12T18:37:48.818Z,45.70
2023-03-12T18:43:02.402Z,44.73
2023-03-12T18:48:10.037Z,44.93
2023-03-12T18:58:24.103Z,43.78
2023-03-12T19:03:33.858Z,43.52
2023-03-12T19:08:41.426Z,44.50
2023-03-12T19:13:53.994Z,43.93
2023-03-12T19:19:02.065Z,46.23
2023-03-12T19:24:10.593Z,44.33
2023-03-12T19:29:17.925Z,45.00
2023-03-12T19:34:26.177Z,44.67
2023-03-12T19:39:36.386Z,44.87
2023-03-12T19:44:45.690Z,43.10
2023-03-12T19:49:57.023Z,43.40
2023-03-12T19:55:05.584Z,44.33
2023-03-12T20:00:13.585Z,43.27
2023-03-12T20:05:20.737Z,44.45
2023-03-12T20:10:30.478Z,43.13
2023-03-12T20:15:40.786Z,43.00
2023-03-12T20:20:49.596Z,43.47
2023-03-12T20:25:56.984Z,44.73
2023-03-12T20:31:15.437Z,42.67
2023-03-12T20:36:21.901Z,43.50
2023-03-12T20:46:34.120Z,43.03
2023-03-12T20:51:42.547Z,43.63
2023-03-12T20:56:49.504Z,43.93
2023-03-12T21:01:56.915Z,43.10
2023-03-12T21:07:07.337Z,43.47
2023-03-12T21:12:16.691Z,43.73
2023-03-12T21:17:23.737Z,43.67
2023-03-12T21:22:33.705Z,43.40
2023-03-12T21:27:50.519Z,43.23
2023-03-12T21:32:50.592Z,43.33
2023-03-12T21:37:57.524Z,43.20
2023-03-12T21:43:06.238Z,43.57
2023-03-12T21:48:15.904Z,43.98
2023-03-12T21:53:24.015Z,44.70
2023-03-12T21:58:32.850Z,43.20
2023-03-12T22:03:40.959Z,43.17
2023-03-12T22:08:52.466Z,43.27
2023-03-12T22:14:00.213Z,43.23
2023-03-12T22:19:08.176Z,43.70
2023-03-12T22:24:15.988Z,43.73
2023-03-12T22:29:23.388Z,43.30
2023-03-12T22:34:31.272Z,43.63
2023-03-12T22:39:38.574Z,43.30
2023-03-12T22:44:45.991Z,43.90
2023-03-12T22:49:53.396Z,43.78
2023-03-12T22:55:00.336Z,43.20
2023-03-12T23:00:14.974Z,46.10
2023-03-12T23:05:22.465Z,44.17
2023-03-12T23:10:29.787Z,44.37
2023-03-12T23:15:41.255Z,43.97
2023-03-12T23:20:45.691Z,44.60
2023-03-12T23:25:58.526Z,43.73
2023-03-12T23:31:08.881Z,43.67
2023-03-12T23:36:21.865Z,43.87
2023-03-12T23:41:30.477Z,43.95
2023-03-12T23:46:37.950Z,44.30
2023-03-12T23:51:44.925Z,43.87
2023-03-12T23:56:52.656Z,44.37
